Time;durP1;ratioP1;P1;durP2;ratioP2;P2;SDS_P1;SDS_P2;PMS_P1;PMS_P2;Temp;Humidity;BMP_temperature;BMP_pressure;BME280_temperature;BME280_humidity;BME280_pressure;Samples;Min_cycle;Max_cycle;Signal;HPM_P1;HPM_P2
2022/05/26 00:02:00;;;;;;;2.77;1.20;;;15.80;63.10;;;;;;5053587;28;1043813;-69
2022/05/26 00:04:27;;;;;;;1.95;1.10;;;15.80;63.30;;;;;;5082742;28;20433;-69
2022/05/26 00:06:55;;;;;;;2.20;1.10;;;15.80;63.60;;;;;;5079337;28;20459;-69
2022/05/26 00:09:23;;;;;;;3.40;1.20;;;15.70;63.80;;;;;;5087500;28;20533;-69
2022/05/26 00:11:50;;;;;;;2.30;1.23;;;15.70;63.90;;;;;;5088375;28;20796;-69
2022/05/26 00:14:17;;;;;;;1.48;1.00;;;15.80;64.10;;;;;;5089846;28;20836;-68
2022/05/26 00:16:46;;;;;;;1.77;0.90;;;15.80;63.90;;;;;;5084619;28;20542;-69
2022/05/26 00:19:14;;;;;;;1.38;0.90;;;15.80;63.90;;;;;;5082036;28;20429;-68
2022/05/26 00:21:41;;;;;;;2.45;0.95;;;15.70;64.00;;;;;;5085032;28;20430;-69
2022/05/26 00:24:09;;;;;;;2.00;1.10;;;15.70;64.30;;;;;;5083548;28;20429;-69
2022/05/26 00:26:37;;;;;;;1.88;0.90;;;15.70;64.50;;;;;;5087303;28;20911;-69
2022/05/26 00:29:03;;;;;;;3.42;1.20;;;15.60;64.70;;;;;;5089106;28;20877;-69
2022/05/26 00:31:31;;;;;;;2.85;0.80;;;15.60;64.90;;;;;;5080714;28;20445;-69
2022/05/26 00:33:58;;;;;;;2.80;1.00;;;15.60;65.00;;;;;;5076600;28;20979;-68
2022/05/26 00:36:38;;;;;;;2.90;1.30;;;15.50;65.30;;;;;;5086963;28;20475;-68
2022/05/26 00:39:06;;;;;;;2.75;1.10;;;15.50;65.70;;;;;;5087080;28;20437;-68
2022/05/26 00:41:33;;;;;;;2.85;0.90;;;15.50;66.00;;;;;;5089856;28;20433;-69
2022/05/26 00:44:01;;;;;;;1.73;0.85;;;15.50;66.40;;;;;;5082526;28;20421;-69
2022/05/26 00:46:36;;;;;;;1.85;1.02;;;15.50;66.90;;;;;;5089571;28;20417;-69
2022/05/26 00:49:04;;;;;;;1.85;1.00;;;15.40;67.30;;;;;;5084415;28;20414;-69
2022/05/26 00:51:37;;;;;;;1.33;0.90;;;15.40;67.60;;;;;;5085579;28;20434;-68
2022/05/26 00:54:09;;;;;;;4.10;1.30;;;15.30;67.80;;;;;;5082385;28;20455;-69
2022/05/26 00:56:42;;;;;;;2.25;1.13;;;15.40;68.10;;;;;;5085232;28;20431;-69
2022/05/26 00:59:15;;;;;;;2.50;1.10;;;15.40;68.10;;;;;;5087943;28;20487;-69
2022/05/26 01:01:42;;;;;;;2.50;1.20;;;15.40;68.00;;;;;;5084656;28;20436;-69
2022/05/26 01:04:12;;;;;;;2.50;1.30;;;15.40;68.20;;;;;;5080931;28;20427;-68
2022/05/26 01:06:44;;;;;;;1.65;0.90;;;15.30;68.40;;;;;;5090173;28;20437;-69
2022/05/26 01:09:11;;;;;;;1.40;0.80;;;15.30;68.60;;;;;;5087715;28;21152;-69
2022/05/26 01:11:41;;;;;;;1.80;0.80;;;15.20;68.60;;;;;;5086318;28;20433;-68
2022/05/26 01:14:15;;;;;;;1.70;1.00;;;15.30;68.60;;;;;;5091617;28;20422;-69
2022/05/26 01:16:49;;;;;;;2.00;1.08;;;15.20;68.80;;;;;;5085537;28;20433;-68
2022/05/26 01:19:39;;;;;;;2.83;1.10;;;15.20;69.00;;;;;;5084468;28;20444;-68
2022/05/26 01:22:21;;;;;;;1.80;0.82;;;15.30;69.00;;;;;;5087348;28;20457;-68
2022/05/26 01:25:08;;;;;;;2.22;1.05;;;15.20;69.30;;;;;;5087937;28;20562;-69
2022/05/26 01:27:37;;;;;;;2.00;0.90;;;15.20;69.60;;;;;;5086982;28;20506;-68
2022/05/26 01:30:26;;;;;;;1.90;0.80;;;15.20;70.70;;;;;;5084128;28;20431;-68
2022/05/26 01:33:18;;;;;;;2.30;0.90;;;15.10;70.10;;;;;;5081392;28;20557;-69
2022/05/26 01:36:00;;;;;;;2.47;0.80;;;15.10;70.40;;;;;;5087336;28;20437;-69
2022/05/26 01:38:34;;;;;;;1.67;0.70;;;15.10;70.60;;;;;;5083625;28;20429;-68
2022/05/26 01:41:11;;;;;;;0.95;0.82;;;15.10;70.80;;;;;;5089177;28;20433;-68
2022/05/26 01:43:49;;;;;;;2.00;1.00;;;15.00;71.00;;;;;;5086745;28;20508;-68
2022/05/26 01:46:22;;;;;;;3.53;0.95;;;14.90;71.30;;;;;;5086088;28;20498;-68
2022/05/26 01:48:56;;;;;;;1.42;0.90;;;14.90;71.70;;;;;;5080150;28;20830;-69
2022/05/26 01:51:28;;;;;;;1.70;0.80;;;14.90;71.90;;;;;;5083291;28;20433;-68
2022/05/26 01:54:06;;;;;;;2.30;1.00;;;14.80;72.20;;;;;;5084069;28;20494;-69
2022/05/26 01:56:44;;;;;;;1.65;0.90;;;14.80;72.40;;;;;;5089545;28;20434;-69
2022/05/26 01:59:13;;;;;;;1.60;0.80;;;14.80;72.50;;;;;;5093439;28;20451;-69
2022/05/26 02:01:43;;;;;;;2.90;1.10;;;14.80;72.80;;;;;;5105738;28;20425;-69
2022/05/26 02:04:21;;;;;;;1.70;1.00;;;14.80;72.70;;;;;;5105565;28;20429;-69
2022/05/26 02:06:52;;;;;;;2.22;1.00;;;14.80;72.50;;;;;;5106830;28;20433;-69
2022/05/26 02:09:24;;;;;;;1.70;0.80;;;14.80;72.70;;;;;;5091613;28;20479;-68
2022/05/26 02:11:56;;;;;;;1.90;0.90;;;14.80;72.90;;;;;;5088878;28;20434;-68
2022/05/26 02:14:31;;;;;;;1.60;1.00;;;14.70;73.00;;;;;;5088105;28;20433;-69
2022/05/26 02:17:04;;;;;;;2.83;0.90;;;14.70;73.10;;;;;;5100979;28;20422;-68
2022/05/26 02:19:36;;;;;;;2.80;1.00;;;14.80;73.30;;;;;;5106010;28;20430;-69
2022/05/26 02:22:09;;;;;;;2.28;1.17;;;14.80;72.90;;;;;;5106695;28;20461;-69
2022/05/26 02:24:40;;;;;;;2.00;0.90;;;14.80;73.00;;;;;;5107880;28;20483;-69
2022/05/26 02:27:07;;;;;;;2.30;1.10;;;14.80;72.90;;;;;;5089451;28;20426;-68
2022/05/26 02:29:52;;;;;;;1.92;1.10;;;14.90;73.00;;;;;;5085504;28;20487;-69
2022/05/26 02:32:22;;;;;;;1.58;1.30;;;14.90;72.90;;;;;;5082893;28;20433;-70
2022/05/26 02:34:53;;;;;;;2.38;1.20;;;14.90;73.00;;;;;;5086919;28;20479;-69
2022/05/26 02:37:21;;;;;;;2.50;1.30;;;14.90;72.80;;;;;;5085760;28;20495;-69
2022/05/26 02:39:48;;;;;;;2.55;1.30;;;14.90;72.90;;;;;;5086356;28;20426;-68
2022/05/26 02:42:15;;;;;;;2.45;1.50;;;14.90;72.90;;;;;;5087118;28;22090;-70
2022/05/26 02:44:44;;;;;;;2.60;1.27;;;15.00;72.90;;;;;;5083559;28;20920;-70
2022/05/26 02:47:26;;;;;;;2.30;1.50;;;15.00;72.70;;;;;;5084662;28;20425;-69
2022/05/26 02:50:07;;;;;;;3.78;1.40;;;15.00;72.90;;;;;;5086160;28;20429;-69
2022/05/26 02:52:44;;;;;;;1.92;1.10;;;15.00;73.00;;;;;;5084421;28;20426;-67
2022/05/26 02:55:19;;;;;;;1.60;1.00;;;15.00;72.90;;;;;;5089324;28;20963;-69
2022/05/26 02:57:54;;;;;;;2.33;1.30;;;15.00;72.90;;;;;;5083379;28;20417;-70
2022/05/26 03:00:25;;;;;;;2.03;1.52;;;15.00;72.80;;;;;;5085497;28;20475;-69
2022/05/26 03:02:58;;;;;;;2.50;1.20;;;15.00;73.00;;;;;;5081669;28;20425;-69
2022/05/26 03:05:29;;;;;;;3.10;1.35;;;15.00;73.30;;;;;;5085134;28;20498;-70
2022/05/26 03:07:59;;;;;;;2.17;1.35;;;15.00;73.20;;;;;;5086145;28;20508;-70
2022/05/26 03:10:28;;;;;;;1.98;1.20;;;15.10;73.20;;;;;;5090286;28;21105;-69
2022/05/26 03:12:56;;;;;;;2.83;1.20;;;15.10;73.40;;;;;;5082269;28;20491;-69
2022/05/26 03:15:23;;;;;;;2.00;1.30;;;15.10;73.20;;;;;;5081828;28;20507;-70
2022/05/26 03:17:50;;;;;;;2.95;1.20;;;15.00;73.60;;;;;;5081729;28;20987;-69
2022/05/26 03:20:17;;;;;;;2.63;1.45;;;15.00;74.20;;;;;;5084806;28;20436;-69
2022/05/26 03:22:45;;;;;;;2.10;1.20;;;14.90;74.50;;;;;;5081906;28;20429;-69
2022/05/26 03:25:12;;;;;;;4.27;1.40;;;14.90;74.80;;;;;;5084932;28;20842;-68
2022/05/26 03:27:39;;;;;;;2.10;1.45;;;14.90;75.40;;;;;;5085488;28;20803;-69
2022/05/26 03:30:07;;;;;;;2.15;1.33;;;14.90;75.70;;;;;;5104315;28;20463;-70
2022/05/26 03:32:33;;;;;;;1.80;1.20;;;14.90;75.90;;;;;;5102212;28;20430;-69
2022/05/26 03:40:50;;;;;;;3.00;1.85;;;14.70;80.30;;;;;;5086514;28;20475;-69
2022/05/26 03:43:17;;;;;;;3.70;1.90;;;14.50;82.00;;;;;;5086397;28;20421;-69
2022/05/26 03:45:45;;;;;;;2.97;2.10;;;14.20;83.10;;;;;;5080670;28;20441;-68
2022/05/26 03:48:12;;;;;;;3.47;2.50;;;14.20;83.90;;;;;;5083959;28;20986;-69
2022/05/26 03:50:38;;;;;;;4.70;2.60;;;14.10;83.50;;;;;;5084161;28;20430;-69
2022/05/26 03:53:07;;;;;;;2.60;2.40;;;14.10;83.90;;;;;;5083435;28;20433;-69
2022/05/26 03:55:33;;;;;;;4.20;2.50;;;14.10;83.90;;;;;;5083536;28;20425;-70
2022/05/26 03:58:01;;;;;;;3.65;2.10;;;14.10;83.40;;;;;;5086258;28;20431;-69
2022/05/26 04:00:28;;;;;;;5.85;2.65;;;14.20;83.90;;;;;;5081697;28;20864;-68
2022/05/26 04:02:54;;;;;;;4.32;2.55;;;14.20;82.60;;;;;;5083164;28;20434;-69
2022/05/26 04:05:21;;;;;;;4.40;2.47;;;14.20;82.90;;;;;;5078649;28;20427;-70
2022/05/26 04:07:48;;;;;;;4.60;2.50;;;14.30;83.50;;;;;;5082439;28;20430;-69
2022/05/26 04:10:17;;;;;;;4.70;2.60;;;14.30;82.70;;;;;;5082952;28;20434;-69
2022/05/26 04:12:43;;;;;;;4.10;2.40;;;14.40;82.10;;;;;;5085552;28;20430;-69
2022/05/26 04:15:11;;;;;;;3.00;2.40;;;14.40;82.10;;;;;;5080338;28;20480;-69
2022/05/26 04:17:38;;;;;;;4.40;2.60;;;14.40;81.80;;;;;;5083095;28;20437;-70
2022/05/26 04:20:06;;;;;;;4.00;2.65;;;14.50;80.60;;;;;;5074398;28;20438;-70
2022/05/26 04:22:33;;;;;;;3.90;2.43;;;14.60;80.50;;;;;;5084382;28;20500;-70
2022/05/26 04:25:00;;;;;;;2.90;2.25;;;14.60;80.60;;;;;;5077526;28;20429;-71
2022/05/26 04:27:30;;;;;;;2.80;2.10;;;14.60;80.40;;;;;;5082876;28;20425;-70
2022/05/26 04:29:57;;;;;;;4.45;2.42;;;14.60;80.20;;;;;;5086646;28;20479;-70
2022/05/26 04:32:24;;;;;;;4.60;2.50;;;14.60;80.40;;;;;;5083115;28;20430;-70
2022/05/26 04:34:51;;;;;;;3.05;2.20;;;14.60;79.80;;;;;;5086661;28;20458;-70
2022/05/26 04:37:19;;;;;;;3.50;2.15;;;14.60;79.90;;;;;;5086942;28;20504;-70
2022/05/26 04:39:46;;;;;;;3.13;2.25;;;14.60;80.00;;;;;;5086790;28;20444;-70
2022/05/26 04:42:13;;;;;;;4.22;2.60;;;14.60;79.80;;;;;;5086390;28;20429;-71
2022/05/26 04:44:43;;;;;;;3.30;2.08;;;14.70;79.70;;;;;;5088014;28;20823;-70
2022/05/26 04:47:11;;;;;;;3.70;2.40;;;14.70;79.10;;;;;;5086513;28;20872;-70
2022/05/26 04:49:38;;;;;;;3.40;2.20;;;14.70;79.40;;;;;;5088055;28;20471;-70
2022/05/26 04:52:06;;;;;;;2.55;2.20;;;14.70;79.00;;;;;;5083855;28;20447;-69
2022/05/26 04:54:35;;;;;;;3.65;2.60;;;14.70;79.10;;;;;;5082709;28;20526;-69
2022/05/26 04:57:02;;;;;;;3.25;2.80;;;14.80;78.90;;;;;;5084182;28;20438;-69
2022/05/26 04:59:31;;;;;;;2.70;2.20;;;14.80;78.90;;;;;;5087908;28;20521;-69
2022/05/26 05:02:00;;;;;;;3.90;2.60;;;14.80;78.80;;;;;;5108287;22;20430;-68
2022/05/26 05:04:28;;;;;;;4.40;2.58;;;14.90;78.30;;;;;;5098211;27;20454;-68
2022/05/26 05:06:55;;;;;;;4.20;2.55;;;14.90;78.20;;;;;;5101099;28;20588;-69
2022/05/26 05:09:23;;;;;;;4.82;2.40;;;14.90;78.10;;;;;;5103013;28;20468;-70
2022/05/26 05:11:50;;;;;;;4.15;2.60;;;14.90;78.10;;;;;;5104547;28;20438;-69
2022/05/26 05:14:17;;;;;;;4.70;2.70;;;14.90;78.10;;;;;;5105497;28;20427;-69
2022/05/26 05:16:45;;;;;;;5.60;3.20;;;15.00;78.00;;;;;;5102925;28;20408;-68
2022/05/26 05:19:15;;;;;;;3.97;3.15;;;15.00;77.40;;;;;;5102027;28;20885;-67
2022/05/26 05:21:46;;;;;;;5.70;3.25;;;15.10;77.60;;;;;;5102339;28;20512;-69
2022/05/26 05:24:17;;;;;;;4.88;3.45;;;15.10;77.50;;;;;;5100158;28;20515;-70
2022/05/26 05:26:50;;;;;;;6.18;3.72;;;15.10;77.10;;;;;;5099025;28;20474;-69
2022/05/26 05:29:18;;;;;;;5.25;3.45;;;15.10;77.10;;;;;;5101443;28;20428;-70
2022/05/26 05:31:49;;;;;;;4.95;3.50;;;15.00;77.00;;;;;;5101838;28;20489;-70
2022/05/26 05:34:21;;;;;;;5.85;3.65;;;15.10;77.10;;;;;;5103398;28;20436;-69
2022/05/26 05:36:48;;;;;;;6.43;3.70;;;15.10;76.80;;;;;;5101855;28;20497;-70
2022/05/26 05:39:14;;;;;;;5.93;3.30;;;15.10;77.00;;;;;;5100899;28;20434;-72
2022/05/26 05:41:41;;;;;;;4.22;3.80;;;15.20;76.50;;;;;;5098980;28;20590;-69
2022/05/26 05:44:08;;;;;;;5.85;3.70;;;15.20;76.50;;;;;;5104340;28;20802;-69
2022/05/26 05:46:53;;;;;;;5.10;3.73;;;15.20;76.50;;;;;;5101264;28;20923;-68
2022/05/26 05:49:22;;;;;;;4.90;3.53;;;15.20;76.30;;;;;;5103616;28;20928;-68
2022/05/26 05:51:48;;;;;;;8.20;4.00;;;15.30;76.40;;;;;;5103944;28;20586;-68
2022/05/26 05:54:15;;;;;;;5.80;3.55;;;15.30;75.70;;;;;;5098916;28;20840;-67
2022/05/26 05:56:42;;;;;;;5.78;3.67;;;15.40;75.80;;;;;;5100134;28;20492;-68
2022/05/26 05:59:09;;;;;;;5.95;4.10;;;15.40;75.80;;;;;;5100834;28;20879;-67
2022/05/26 06:01:35;;;;;;;5.97;3.75;;;15.40;75.70;;;;;;5101494;28;20538;-67
2022/05/26 06:04:02;;;;;;;5.28;3.40;;;15.40;75.60;;;;;;5102269;28;20424;-67
2022/05/26 06:06:35;;;;;;;6.75;3.88;;;15.50;75.50;;;;;;5100927;28;20507;-67
2022/05/26 06:09:02;;;;;;;5.00;3.70;;;15.50;75.10;;;;;;5099801;28;20442;-67
2022/05/26 06:11:28;;;;;;;5.80;4.10;;;15.60;75.10;;;;;;5098023;28;20432;-68
2022/05/26 06:13:55;;;;;;;7.53;4.10;;;15.60;75.10;;;;;;5100571;28;20582;-68
2022/05/26 06:16:22;;;;;;;6.50;3.90;;;15.60;75.00;;;;;;5095349;28;20433;-69
2022/05/26 06:18:50;;;;;;;6.25;4.07;;;15.60;75.30;;;;;;5099804;28;20432;-68
2022/05/26 06:21:17;;;;;;;5.00;4.40;;;15.60;75.10;;;;;;5101467;28;20475;-68
2022/05/26 06:23:45;;;;;;;5.22;3.70;;;15.60;75.30;;;;;;5097485;28;20436;-67
2022/05/26 06:26:12;;;;;;;8.23;4.43;;;15.60;75.20;;;;;;5101362;28;20443;-67
2022/05/26 06:31:23;;;;;;;6.82;4.30;;;15.60;75.20;;;;;;5112922;28;20415;-70
2022/05/26 06:39:25;;;;;;;4.90;4.00;;;16.00;73.80;;;;;;5102684;28;20433;-67
2022/05/26 06:42:07;;;;;;;7.35;4.20;;;16.00;73.50;;;;;;5103998;28;20416;-67
2022/05/26 06:44:37;;;;;;;8.45;4.80;;;16.00;73.30;;;;;;5103344;28;20496;-66
2022/05/26 06:47:06;;;;;;;6.90;4.65;;;16.10;73.00;;;;;;5101922;28;20815;-67
2022/05/26 06:49:33;;;;;;;7.57;4.80;;;16.20;72.40;;;;;;5103612;28;20564;-68
2022/05/26 06:52:00;;;;;;;6.10;4.15;;;16.20;72.40;;;;;;5101582;28;20434;-67
2022/05/26 06:54:32;;;;;;;7.35;4.80;;;16.30;72.30;;;;;;5102464;28;20787;-67
2022/05/26 06:56:59;;;;;;;5.90;4.45;;;16.50;71.70;;;;;;5103024;28;20408;-68
2022/05/26 06:59:26;;;;;;;7.90;4.57;;;16.70;70.00;;;;;;5103025;28;20410;-68
2022/05/26 07:01:52;;;;;;;8.05;4.78;;;16.70;69.60;;;;;;5102939;28;20824;-66
2022/05/26 07:04:19;;;;;;;6.72;4.30;;;16.80;70.10;;;;;;5103769;28;20404;-67
2022/05/26 07:06:49;;;;;;;6.40;4.45;;;17.10;69.10;;;;;;5101612;28;20428;-66
2022/05/26 07:09:16;;;;;;;6.05;3.80;;;17.30;68.40;;;;;;5102909;28;20507;-67
2022/05/26 07:11:44;;;;;;;5.60;3.80;;;17.30;67.10;;;;;;5103015;28;20535;-68
2022/05/26 07:14:10;;;;;;;4.40;3.90;;;17.30;67.80;;;;;;5104231;28;20440;-67
2022/05/26 07:16:37;;;;;;;5.90;4.10;;;17.30;67.70;;;;;;5100139;28;20444;-67
2022/05/26 07:19:04;;;;;;;7.32;4.70;;;17.30;67.30;;;;;;5102419;28;20424;-70
2022/05/26 07:21:30;;;;;;;8.87;4.60;;;17.30;67.00;;;;;;5103370;28;21140;-68
2022/05/26 07:23:57;;;;;;;5.95;4.30;;;17.30;66.70;;;;;;5102826;28;20412;-67
2022/05/26 07:26:25;;;;;;;6.82;4.72;;;17.30;67.40;;;;;;5103137;28;20408;-67
2022/05/26 07:28:53;;;;;;;7.97;4.80;;;17.30;67.40;;;;;;5102593;28;20469;-68
2022/05/26 07:31:20;;;;;;;5.57;4.55;;;17.30;66.60;;;;;;5102138;28;20449;-67
2022/05/26 07:33:47;;;;;;;6.07;4.78;;;17.10;67.00;;;;;;5101939;28;20917;-67
2022/05/26 07:41:40;;;;;;;7.45;4.70;;;16.80;68.70;;;;;;5103294;28;20402;-68
2022/05/26 07:44:08;;;;;;;6.22;4.50;;;17.10;67.10;;;;;;5102991;28;20412;-67
2022/05/26 07:46:34;;;;;;;7.15;4.68;;;17.30;66.00;;;;;;5102061;28;20487;-67
2022/05/26 07:49:02;;;;;;;7.18;4.32;;;17.40;65.50;;;;;;5102387;28;20424;-67
2022/05/26 07:51:29;;;;;;;7.40;4.40;;;17.50;65.20;;;;;;5103127;28;20491;-70
2022/05/26 07:53:55;;;;;;;4.77;3.80;;;17.60;65.00;;;;;;5103140;28;20415;-68
2022/05/26 07:56:22;;;;;;;7.15;4.50;;;17.70;64.20;;;;;;5101851;28;20796;-68
2022/05/26 07:58:49;;;;;;;7.97;4.57;;;17.70;64.60;;;;;;5101698;28;21052;-68
2022/05/26 08:01:16;;;;;;;6.88;4.80;;;17.50;65.40;;;;;;5097305;28;21360;-68
2022/05/26 08:03:43;;;;;;;5.53;4.00;;;17.50;66.10;;;;;;5101885;28;20427;-68
2022/05/26 08:06:10;;;;;;;8.48;4.30;;;17.70;66.00;;;;;;5099556;28;20535;-67
2022/05/26 08:08:37;;;;;;;6.90;4.68;;;18.10;62.60;;;;;;5100512;28;20485;-67
2022/05/26 08:11:04;;;;;;;4.95;4.03;;;18.20;61.50;;;;;;5105868;28;20889;-67
2022/05/26 08:13:31;;;;;;;5.72;4.82;;;18.20;61.90;;;;;;5107219;28;20412;-68
2022/05/26 08:15:58;;;;;;;7.50;4.78;;;18.20;62.40;;;;;;5106032;28;20535;-68
2022/05/26 08:18:28;;;;;;;5.23;3.90;;;18.40;61.60;;;;;;5105406;28;20434;-69
2022/05/26 08:20:55;;;;;;;5.93;3.80;;;18.60;60.20;;;;;;5106490;28;20448;-67
2022/05/26 08:23:25;;;;;;;6.97;4.18;;;18.70;59.30;;;;;;5106766;28;20465;-67
2022/05/26 08:25:52;;;;;;;6.18;4.05;;;18.90;58.80;;;;;;5106772;28;20787;-69
2022/05/26 08:28:19;;;;;;;6.53;3.70;;;18.90;59.70;;;;;;5106517;28;20488;-66
2022/05/26 08:30:45;;;;;;;6.75;4.30;;;19.30;58.50;;;;;;5104791;28;20454;-66
2022/05/26 08:33:12;;;;;;;8.27;4.85;;;19.20;58.50;;;;;;5103575;28;20424;-69
2022/05/26 08:35:40;;;;;;;6.50;4.80;;;18.70;58.90;;;;;;5105438;28;20551;-67
2022/05/26 08:38:07;;;;;;;7.07;4.70;;;18.20;61.00;;;;;;5104897;28;20525;-69
2022/05/26 08:40:37;;;;;;;6.80;5.00;;;18.00;61.40;;;;;;5106142;28;20416;-67
2022/05/26 08:43:06;;;;;;;7.05;4.45;;;18.10;61.80;;;;;;5106827;28;20485;-67
2022/05/26 08:45:36;;;;;;;6.32;4.10;;;18.00;59.20;;;;;;5105004;28;20878;-67
2022/05/26 08:48:03;;;;;;;5.97;3.75;;;18.10;58.90;;;;;;5105598;28;20408;-67
2022/05/26 08:50:34;;;;;;;4.70;3.72;;;18.30;58.90;;;;;;5104677;28;20499;-68
2022/05/26 08:53:08;;;;;;;5.47;4.45;;;18.40;58.40;;;;;;5105157;28;20522;-67
2022/05/26 08:55:40;;;;;;;4.43;3.57;;;18.60;58.50;;;;;;5103918;28;20934;-68
2022/05/26 08:58:11;;;;;;;5.60;3.92;;;18.70;58.80;;;;;;5105084;28;20419;-68
2022/05/26 09:00:40;;;;;;;6.05;4.13;;;18.60;58.10;;;;;;5099632;28;20881;-68
2022/05/26 09:03:23;;;;;;;4.15;3.55;;;18.50;58.70;;;;;;5099975;27;20424;-66
2022/05/26 09:05:55;;;;;;;5.47;3.90;;;18.50;58.50;;;;;;5098495;28;20472;-68
2022/05/26 09:13:56;;;;;;;5.13;3.80;;;18.50;56.40;;;;;;5104532;28;20519;-70
2022/05/26 09:16:23;;;;;;;5.43;3.50;;;18.80;56.50;;;;;;5101933;28;20478;-67
2022/05/26 09:19:07;;;;;;;6.30;3.80;;;19.10;55.40;;;;;;5103466;28;20955;-67
2022/05/26 09:21:34;;;;;;;6.10;3.90;;;19.40;56.40;;;;;;5103067;28;20424;-67
2022/05/26 09:24:17;;;;;;;6.00;3.92;;;19.50;56.50;;;;;;5105197;28;20424;-67
2022/05/26 09:26:46;;;;;;;5.60;3.50;;;19.60;55.10;;;;;;5104253;28;20435;-69
2022/05/26 09:29:13;;;;;;;4.38;3.50;;;19.40;54.90;;;;;;5105568;28;20523;-74
2022/05/26 09:31:46;;;;;;;4.03;3.25;;;19.30;54.10;;;;;;5105436;28;20412;-68
2022/05/26 09:34:18;;;;;;;4.78;3.17;;;19.40;55.10;;;;;;5103181;28;20484;-67
2022/05/26 09:36:48;;;;;;;5.07;2.90;;;19.80;53.40;;;;;;5103938;28;20446;-68
2022/05/26 09:39:19;;;;;;;5.25;2.75;;;20.10;52.90;;;;;;5101841;28;20444;-68
2022/05/26 09:41:49;;;;;;;4.95;2.80;;;20.10;51.90;;;;;;5098230;27;20838;-67
2022/05/26 09:44:29;;;;;;;5.25;2.70;;;20.20;51.00;;;;;;5100488;28;20992;-67
2022/05/26 09:46:58;;;;;;;6.32;2.80;;;20.00;51.40;;;;;;5101693;28;20936;-67
2022/05/26 09:49:31;;;;;;;4.97;2.80;;;20.00;51.00;;;;;;5099594;28;20870;-69
2022/05/26 09:52:09;;;;;;;6.03;3.30;;;20.00;51.90;;;;;;5102716;28;20443;-67
2022/05/26 09:54:37;;;;;;;7.20;2.85;;;20.20;52.50;;;;;;5104429;28;20485;-66
2022/05/26 09:57:20;;;;;;;5.57;3.05;;;20.20;51.30;;;;;;5103188;28;20412;-66
2022/05/26 09:59:47;;;;;;;4.28;2.60;;;20.40;50.90;;;;;;5104780;28;20416;-67
2022/05/26 10:02:22;;;;;;;5.22;2.55;;;20.50;51.30;;;;;;5102877;28;20424;-67
2022/05/26 10:05:00;;;;;;;5.45;2.85;;;20.50;49.60;;;;;;5103516;28;20424;-67
2022/05/26 10:07:38;;;;;;;5.23;2.50;;;20.90;48.90;;;;;;5103354;28;20508;-71
2022/05/26 10:10:15;;;;;;;4.55;2.40;;;21.30;49.50;;;;;;5102364;28;20473;-67
2022/05/26 10:12:52;;;;;;;5.78;2.72;;;21.70;46.90;;;;;;5104370;28;20416;-69
2022/05/26 10:15:29;;;;;;;4.60;2.60;;;21.80;46.70;;;;;;5102335;28;20424;-67
2022/05/26 10:18:12;;;;;;;4.50;2.70;;;21.70;46.90;;;;;;5100685;28;20822;-68
2022/05/26 10:20:48;;;;;;;5.10;3.10;;;21.70;47.60;;;;;;5102928;28;20449;-68
2022/05/26 10:23:31;;;;;;;4.07;2.60;;;21.30;47.80;;;;;;5101156;28;20832;-67
2022/05/26 10:26:05;;;;;;;6.35;3.20;;;20.90;49.10;;;;;;5102334;28;20432;-70
2022/05/26 10:28:50;;;;;;;4.22;2.80;;;20.70;49.70;;;;;;5101965;28;20432;-67
2022/05/26 10:31:31;;;;;;;5.68;3.20;;;20.40;50.00;;;;;;5103044;28;20416;-69
2022/05/26 10:34:14;;;;;;;5.18;3.00;;;20.40;50.30;;;;;;5101441;28;20432;-71
2022/05/26 10:36:56;;;;;;;4.30;2.63;;;20.70;51.00;;;;;;5101388;28;20436;-69
2022/05/26 10:39:32;;;;;;;4.63;2.70;;;21.00;49.70;;;;;;5101551;28;20492;-69
2022/05/26 10:42:06;;;;;;;5.95;2.70;;;21.30;48.20;;;;;;5102205;28;20477;-69
2022/05/26 10:44:37;;;;;;;4.33;2.83;;;21.70;47.00;;;;;;5100126;28;20481;-66
2022/05/26 10:47:10;;;;;;;4.30;2.50;;;21.80;46.20;;;;;;5102076;28;20754;-70
2022/05/26 10:49:43;;;;;;;4.68;3.13;;;21.20;48.50;;;;;;5101976;28;20431;-69
2022/05/26 10:52:15;;;;;;;4.97;2.85;;;20.70;48.80;;;;;;5106881;28;20519;-80
2022/05/26 10:54:49;;;;;;;5.00;2.83;;;20.60;49.80;;;;;;5107866;28;20488;-79
2022/05/26 10:57:25;;;;;;;3.72;1.90;;;20.40;49.60;;;;;;5108347;28;20423;-78
2022/05/26 11:00:00;;;;;;;4.53;2.30;;;20.20;45.80;;;;;;5112551;28;20543;-79
2022/05/26 11:02:34;;;;;;;3.80;1.70;;;20.40;46.10;;;;;;5109120;28;20424;-74
2022/05/26 11:05:05;;;;;;;3.47;1.80;;;21.10;44.70;;;;;;5100995;28;20427;-73
2022/05/26 11:07:37;;;;;;;4.22;2.20;;;21.30;44.20;;;;;;5101537;28;20420;-73
2022/05/26 11:10:07;;;;;;;4.25;2.15;;;21.70;44.20;;;;;;5101337;28;20510;-72
2022/05/26 11:12:42;;;;;;;5.10;2.15;;;21.80;44.40;;;;;;5100664;28;20473;-73
2022/05/26 11:18:03;;;;;;;4.20;2.10;;;21.50;45.50;;;;;;5096863;28;20503;-73
2022/05/26 11:20:33;;;;;;;4.43;2.10;;;21.50;44.90;;;;;;5099381;28;21138;-73
2022/05/26 11:23:03;;;;;;;4.40;1.83;;;21.10;44.50;;;;;;5101934;28;20440;-73
2022/05/26 11:25:32;;;;;;;3.72;1.60;;;20.90;45.10;;;;;;5101500;28;20400;-73
2022/05/26 11:28:07;;;;;;;4.20;1.63;;;20.60;46.40;;;;;;5102636;28;20861;-73
2022/05/26 11:36:17;;;;;;;4.72;1.90;;;20.20;47.20;;;;;;5100289;28;20431;-73
2022/05/26 11:38:46;;;;;;;3.60;1.60;;;20.60;47.50;;;;;;5103944;28;20416;-73
2022/05/26 11:41:23;;;;;;;3.08;1.80;;;21.10;43.70;;;;;;5102966;28;20416;-73
2022/05/26 11:44:03;;;;;;;4.37;1.90;;;21.20;44.10;;;;;;5103229;28;20477;-73
2022/05/26 11:46:49;;;;;;;2.85;1.42;;;21.00;45.20;;;;;;5102010;28;20439;-72
2022/05/26 11:49:49;;;;;;;4.30;2.00;;;21.00;43.60;;;;;;5101376;28;20858;-72
2022/05/26 11:52:25;;;;;;;4.03;2.05;;;21.40;43.00;;;;;;5100918;28;20420;-70
2022/05/26 11:55:16;;;;;;;2.78;1.80;;;22.00;42.40;;;;;;5099984;28;20412;-67
2022/05/26 11:57:53;;;;;;;2.50;1.67;;;22.40;42.30;;;;;;5102004;28;20473;-68
2022/05/26 12:00:37;;;;;;;4.70;2.20;;;22.20;42.10;;;;;;5102204;28;20412;-66
2022/05/26 12:03:29;;;;;;;4.43;1.60;;;21.80;42.40;;;;;;5102081;28;20419;-67
2022/05/26 12:06:12;;;;;;;3.40;1.77;;;21.70;43.20;;;;;;5100118;28;20483;-67
2022/05/26 12:08:46;;;;;;;2.97;1.60;;;21.60;41.70;;;;;;5101258;28;20529;-68
2022/05/26 12:11:15;;;;;;;3.00;1.60;;;21.60;42.70;;;;;;5101491;28;20416;-67
2022/05/26 12:13:43;;;;;;;4.43;2.10;;;21.60;43.00;;;;;;5101370;28;20514;-69
2022/05/26 12:16:25;;;;;;;4.20;2.20;;;21.00;44.10;;;;;;5099219;28;20458;-69
2022/05/26 12:18:55;;;;;;;3.17;1.90;;;20.80;44.50;;;;;;5101494;28;20423;-69
2022/05/26 12:21:47;;;;;;;2.70;1.60;;;20.80;44.30;;;;;;5101799;28;20512;-67
2022/05/26 12:25:00;;;;;;;3.00;1.92;;;20.80;42.80;;;;;;5100756;28;20423;-68
2022/05/26 12:27:54;;;;;;;3.50;2.30;;;21.10;42.70;;;;;;5099049;28;20691;-67
2022/05/26 12:30:53;;;;;;;1.85;1.27;;;21.50;42.60;;;;;;5101490;28;20698;-67
2022/05/26 12:33:41;;;;;;;3.35;1.80;;;21.70;43.50;;;;;;5078944;28;20457;-68
2022/05/26 12:36:18;;;;;;;3.90;2.10;;;21.50;42.40;;;;;;5099320;28;20431;-67
2022/05/26 12:39:02;;;;;;;3.00;2.00;;;21.90;40.10;;;;;;5101894;28;20481;-69
2022/05/26 12:41:43;;;;;;;4.50;1.80;;;22.20;40.80;;;;;;5100579;28;20836;-67
2022/05/26 12:44:31;;;;;;;4.63;1.60;;;22.50;40.00;;;;;;5100067;28;20420;-69
2022/05/26 12:47:23;;;;;;;4.30;2.10;;;22.20;39.90;;;;;;5100186;28;20439;-67
2022/05/26 12:50:01;;;;;;;3.90;2.35;;;21.70;41.40;;;;;;5101994;28;20880;-68
2022/05/26 12:52:33;;;;;;;4.93;2.40;;;21.50;42.60;;;;;;5100023;28;20565;-67
2022/05/26 12:55:17;;;;;;;4.15;2.50;;;21.80;41.40;;;;;;5101023;28;20524;-69
2022/05/26 12:57:48;;;;;;;3.70;2.42;;;22.10;40.30;;;;;;5104212;28;20424;-69
2022/05/26 13:00:26;;;;;;;3.83;2.47;;;22.20;39.90;;;;;;5104799;28;20423;-75
2022/05/26 13:02:57;;;;;;;4.43;2.50;;;22.10;39.20;;;;;;5125300;22;20428;-72
2022/05/26 13:05:28;;;;;;;4.43;2.40;;;21.50;40.10;;;;;;5092209;28;20511;-74
2022/05/26 13:07:56;;;;;;;3.00;2.20;;;21.20;41.90;;;;;;5096312;28;20424;-71
2022/05/26 13:10:26;;;;;;;4.55;2.55;;;20.90;42.40;;;;;;5100502;28;20425;-71
2022/05/26 13:12:54;;;;;;;2.60;2.40;;;21.20;41.80;;;;;;5091930;28;20508;-73
2022/05/26 13:15:23;;;;;;;3.08;2.50;;;21.20;41.70;;;;;;5077100;28;20478;-73
2022/05/26 13:17:50;;;;;;;3.75;2.05;;;21.10;42.60;;;;;;5081245;28;20434;-72
2022/05/26 13:20:29;;;;;;;2.80;2.40;;;21.30;42.10;;;;;;5084987;28;20471;-71
2022/05/26 13:22:56;;;;;;;2.70;2.40;;;21.80;40.80;;;;;;5080999;28;20422;-71
2022/05/26 13:25:28;;;;;;;5.60;2.80;;;21.90;40.90;;;;;;5098430;28;20964;-71
2022/05/26 13:27:58;;;;;;;4.85;3.22;;;22.30;40.20;;;;;;5100679;28;20404;-74
2022/05/26 13:33:18;;;;;;;3.92;2.70;;;23.00;39.00;;;;;;5088566;28;20416;-73
2022/05/26 13:35:50;;;;;;;3.80;2.92;;;23.40;38.40;;;;;;5096654;28;20436;-72
2022/05/26 13:38:28;;;;;;;4.15;3.05;;;22.90;37.80;;;;;;5087574;28;20429;-73
2022/05/26 13:40:55;;;;;;;4.00;2.83;;;22.80;38.90;;;;;;5074926;28;20442;-73
2022/05/26 13:43:22;;;;;;;2.83;2.40;;;22.70;39.70;;;;;;5084990;28;20422;-73
2022/05/26 13:45:49;;;;;;;4.40;2.80;;;23.00;38.40;;;;;;5077354;28;20440;-72
2022/05/26 13:48:35;;;;;;;4.13;2.75;;;23.40;39.60;;;;;;5079158;28;20784;-74